Time;durP1;ratioP1;P1;durP2;ratioP2;P2;SDS_P1;SDS_P2;PMS_P1;PMS_P2;Temp;Humidity;BMP_temperature;BMP_pressure;BME280_temperature;BME280_humidity;BME280_pressure;Samples;Min_cycle;Max_cycle;Signal;HPM_P1;HPM_P2
2023/04/28 00:05:28;;;;;;;7.50;2.10;;;8.00;99.90;;;;;;12468418;28;20136;-81
2023/04/28 00:11:37;;;;;;;6.55;2.55;;;8.00;99.90;;;;;;12475971;28;20632;-82
2023/04/28 00:17:45;;;;;;;4.60;2.50;;;8.10;99.90;;;;;;12472407;28;20177;-82
2023/04/28 00:23:53;;;;;;;7.18;2.50;;;8.10;99.90;;;;;;12456702;28;20046;-82
2023/04/28 00:30:03;;;;;;;6.45;2.60;;;8.10;99.90;;;;;;12466991;28;20041;-81
2023/04/28 00:36:18;;;;;;;5.53;2.72;;;8.10;99.90;;;;;;12512364;28;20084;-82
2023/04/28 00:42:26;;;;;;;5.93;2.60;;;8.00;99.90;;;;;;12524274;28;20060;-82
2023/04/28 00:48:34;;;;;;;6.13;2.78;;;8.10;99.90;;;;;;12502204;28;20057;-82
2023/04/28 00:54:43;;;;;;;6.47;2.40;;;8.20;99.90;;;;;;12501083;28;20463;-81
2023/04/28 01:00:52;;;;;;;4.25;2.55;;;8.10;99.90;;;;;;12498099;28;20057;-82
2023/04/28 01:07:01;;;;;;;5.32;2.38;;;8.20;99.90;;;;;;12531709;28;20060;-83
2023/04/28 01:13:09;;;;;;;6.97;3.28;;;8.30;99.90;;;;;;12513643;28;20869;-82
2023/04/28 01:19:23;;;;;;;6.88;2.53;;;8.10;99.90;;;;;;12529670;28;20159;-84
2023/04/28 01:25:31;;;;;;;5.10;3.03;;;8.20;99.90;;;;;;12551710;28;20041;-83
2023/04/28 01:31:39;;;;;;;9.10;3.20;;;8.10;99.90;;;;;;12517668;28;20057;-82
2023/04/28 01:37:48;;;;;;;5.93;3.25;;;8.10;99.90;;;;;;12510219;28;20087;-83
2023/04/28 01:43:56;;;;;;;5.80;2.75;;;8.10;99.90;;;;;;12494619;28;20513;-83
2023/04/28 01:50:05;;;;;;;6.38;2.75;;;7.90;99.90;;;;;;12515961;28;20547;-82
2023/04/28 01:56:13;;;;;;;6.28;3.05;;;7.90;99.90;;;;;;12505309;28;20124;-83
2023/04/28 02:02:21;;;;;;;7.32;3.30;;;7.80;99.90;;;;;;12507859;28;20053;-82
2023/04/28 02:08:35;;;;;;;8.77;3.42;;;7.60;99.90;;;;;;12527208;28;20206;-81
2023/04/28 02:14:44;;;;;;;10.77;3.40;;;7.30;99.90;;;;;;12497180;28;20061;-81
2023/04/28 02:20:53;;;;;;;10.55;3.85;;;7.30;99.90;;;;;;12499476;28;20099;-82
2023/04/28 02:27:02;;;;;;;8.63;3.55;;;7.30;99.90;;;;;;12533073;28;20056;-82
2023/04/28 02:33:10;;;;;;;9.55;4.00;;;7.30;99.90;;;;;;12515219;28;20527;-82
2023/04/28 02:39:21;;;;;;;7.30;3.60;;;7.20;99.90;;;;;;12520964;28;20049;-82
2023/04/28 02:45:30;;;;;;;6.65;3.47;;;7.30;99.90;;;;;;12499249;28;20098;-82
2023/04/28 02:51:39;;;;;;;7.30;3.70;;;7.30;99.90;;;;;;12495897;28;20045;-82
2023/04/28 02:57:47;;;;;;;7.43;3.80;;;7.40;99.90;;;;;;12525641;28;20167;-83
2023/04/28 03:03:55;;;;;;;7.50;4.03;;;7.50;99.90;;;;;;12505847;28;20049;-82
2023/04/28 03:10:04;;;;;;;6.57;3.88;;;7.80;99.90;;;;;;12509759;28;20064;-82
2023/04/28 03:16:12;;;;;;;7.85;4.13;;;7.70;99.90;;;;;;12508611;28;20138;-82
2023/04/28 03:22:20;;;;;;;6.65;3.65;;;7.70;99.90;;;;;;12489125;28;20800;-82
2023/04/28 03:28:28;;;;;;;5.72;3.67;;;7.70;99.90;;;;;;12504911;28;20057;-82
2023/04/28 03:34:44;;;;;;;5.35;3.45;;;7.90;99.90;;;;;;12464900;28;20053;-82
2023/04/28 03:40:52;;;;;;;6.53;4.22;;;7.70;99.90;;;;;;12459019;28;20088;-82
2023/04/28 03:47:00;;;;;;;11.55;4.50;;;7.80;99.90;;;;;;12450241;28;20127;-82
2023/04/28 03:53:08;;;;;;;7.72;4.07;;;7.70;99.90;;;;;;12465504;28;20046;-82
2023/04/28 03:59:16;;;;;;;9.35;4.53;;;7.70;99.90;;;;;;12455928;28;20054;-82
2023/04/28 04:05:24;;;;;;;8.55;4.32;;;7.70;99.90;;;;;;12477658;28;20102;-82
2023/04/28 04:11:32;;;;;;;9.32;4.38;;;7.70;99.90;;;;;;12467353;28;20068;-82
2023/04/28 04:17:40;;;;;;;8.23;4.30;;;7.70;99.90;;;;;;12475501;28;20417;-81
2023/04/28 04:23:48;;;;;;;8.52;4.40;;;7.70;99.90;;;;;;12488956;28;20076;-81
2023/04/28 04:30:04;;;;;;;8.73;4.63;;;7.70;99.90;;;;;;12468649;28;20129;-81
2023/04/28 04:36:19;;;;;;;12.07;4.40;;;7.70;99.90;;;;;;12522043;28;20504;-81
2023/04/28 04:42:29;;;;;;;13.35;4.43;;;7.80;99.90;;;;;;12531395;28;20072;-81
2023/04/28 04:48:37;;;;;;;8.73;5.00;;;7.80;99.90;;;;;;12502772;28;20056;-81
2023/04/28 04:54:45;;;;;;;9.70;5.15;;;7.90;99.90;;;;;;12521498;28;20517;-82
2023/04/28 05:00:53;;;;;;;10.98;5.15;;;7.80;99.90;;;;;;12529138;28;20065;-82
2023/04/28 05:07:01;;;;;;;9.23;5.30;;;8.00;99.90;;;;;;12522740;28;20049;-82
2023/04/28 05:13:09;;;;;;;8.32;4.82;;;8.10;99.90;;;;;;12516552;28;20068;-82
2023/04/28 05:19:17;;;;;;;10.68;4.88;;;8.20;99.90;;;;;;12496491;28;20111;-82
2023/04/28 05:25:25;;;;;;;8.48;5.03;;;8.50;99.90;;;;;;12513647;28;20477;-80
2023/04/28 05:31:34;;;;;;;12.77;5.40;;;8.50;99.90;;;;;;12518603;28;20044;-81
2023/04/28 05:37:43;;;;;;;11.15;5.95;;;8.60;99.90;;;;;;12526884;28;20041;-81
2023/04/28 05:43:52;;;;;;;9.25;5.40;;;8.90;99.90;;;;;;12520822;28;20056;-81
2023/04/28 05:50:00;;;;;;;9.48;5.53;;;9.20;99.90;;;;;;12516211;28;20100;-82
2023/04/28 05:56:08;;;;;;;10.13;5.38;;;9.30;99.90;;;;;;12529904;28;20045;-82
2023/04/28 06:02:16;;;;;;;10.43;5.72;;;9.30;99.90;;;;;;12518197;28;20052;-82
2023/04/28 06:08:27;;;;;;;9.13;5.45;;;9.50;99.90;;;;;;12529296;28;20064;-82
2023/04/28 06:14:36;;;;;;;9.02;4.82;;;9.50;99.90;;;;;;12507120;28;20188;-82
2023/04/28 06:20:44;;;;;;;10.27;4.88;;;9.60;99.90;;;;;;12511069;28;20049;-82
2023/04/28 06:26:52;;;;;;;9.88;5.32;;;9.70;99.90;;;;;;12478118;28;20046;-82
2023/04/28 06:33:08;;;;;;;12.98;5.40;;;9.80;99.90;;;;;;12522782;28;20568;-82
2023/04/28 06:39:16;;;;;;;12.15;4.78;;;9.90;99.90;;;;;;12508756;28;20483;-82
2023/04/28 06:45:24;;;;;;;11.77;5.57;;;10.10;99.90;;;;;;12512268;28;20045;-82
2023/04/28 06:51:33;;;;;;;12.15;5.30;;;10.20;99.90;;;;;;12497555;28;20109;-82
2023/04/28 06:57:41;;;;;;;14.88;5.82;;;10.30;99.90;;;;;;12486489;28;20060;-82
2023/04/28 07:03:50;;;;;;;9.57;5.00;;;10.40;99.90;;;;;;12498156;28;20049;-82
2023/04/28 07:09:59;;;;;;;8.75;5.28;;;10.60;99.90;;;;;;12507064;28;20071;-83
2023/04/28 07:16:09;;;;;;;12.98;5.45;;;10.60;99.90;;;;;;12512940;28;20126;-83
2023/04/28 07:22:18;;;;;;;10.57;5.70;;;10.80;99.90;;;;;;12519768;28;20049;-83
2023/04/28 07:28:27;;;;;;;10.98;5.97;;;10.90;99.90;;;;;;12543066;28;20025;-84
2023/04/28 07:34:42;;;;;;;12.02;5.95;;;10.70;99.90;;;;;;12528726;28;20075;-83
2023/04/28 07:40:52;;;;;;;12.32;6.40;;;10.60;99.90;;;;;;12538810;28;20042;-84
2023/04/28 07:47:01;;;;;;;12.25;5.93;;;10.70;99.90;;;;;;12518035;28;20457;-84
2023/04/28 07:53:10;;;;;;;10.82;5.43;;;10.80;99.90;;;;;;12532958;28;20049;-83
2023/04/28 07:59:18;;;;;;;9.70;6.03;;;10.80;99.90;;;;;;12521041;28;20089;-84
2023/04/28 08:05:26;;;;;;;10.10;5.60;;;10.80;99.90;;;;;;12495275;28;20073;-84
2023/04/28 08:11:35;;;;;;;10.63;6.00;;;10.90;99.90;;;;;;12510102;28;20076;-84
2023/04/28 08:17:43;;;;;;;9.65;5.28;;;11.10;99.90;;;;;;12479515;28;20101;-83
2023/04/28 08:23:51;;;;;;;10.98;4.93;;;11.20;99.90;;;;;;12446868;28;20056;-83
2023/04/28 08:29:59;;;;;;;10.05;5.32;;;11.30;99.90;;;;;;12463622;28;20046;-82
2023/04/28 08:36:14;;;;;;;9.40;5.57;;;11.40;99.90;;;;;;12511650;28;20045;-82
2023/04/28 08:42:22;;;;;;;11.25;5.47;;;11.50;99.90;;;;;;12509100;28;20409;-82
2023/04/28 08:48:39;;;;;;;13.15;5.13;;;11.60;99.90;;;;;;12513932;28;20073;-82
2023/04/28 08:54:49;;;;;;;9.65;5.28;;;11.90;99.90;;;;;;12518905;28;20180;-81
2023/04/28 09:00:58;;;;;;;8.07;5.20;;;11.90;99.90;;;;;;12500937;28;20045;-82
2023/04/28 09:07:13;;;;;;;10.27;5.68;;;11.90;99.90;;;;;;12511371;28;20063;-82
2023/04/28 09:13:25;;;;;;;8.05;5.20;;;11.90;99.90;;;;;;12530962;28;20049;-82
2023/04/28 09:19:35;;;;;;;9.07;5.80;;;11.90;99.90;;;;;;12555756;28;20049;-84
2023/04/28 09:25:58;;;;;;;9.73;5.88;;;11.90;99.90;;;;;;12560589;28;20041;-84
2023/04/28 09:32:20;;;;;;;9.73;5.32;;;11.90;99.90;;;;;;12534639;28;20041;-83
2023/04/28 09:38:29;;;;;;;9.77;5.63;;;12.10;99.90;;;;;;12509662;28;20048;-83
2023/04/28 09:44:37;;;;;;;7.95;5.45;;;12.10;99.90;;;;;;12512215;28;20059;-83
2023/04/28 09:50:46;;;;;;;9.40;6.03;;;12.10;99.90;;;;;;12538029;28;20048;-84
2023/04/28 09:56:55;;;;;;;9.73;5.90;;;12.30;99.90;;;;;;12502232;28;20076;-82
2023/04/28 10:03:26;;;;;;;10.20;6.43;;;12.30;99.90;;;;;;12351263;27;8199739;-36
2023/04/28 10:09:36;;;;;;;9.23;5.85;;;12.40;99.90;;;;;;12602441;28;20044;-36
2023/04/28 10:15:45;;;;;;;10.32;5.53;;;12.70;99.90;;;;;;12532988;28;20041;-36
2023/04/28 10:22:10;;;;;;;12.88;6.05;;;12.90;99.90;;;;;;12527541;28;20152;-38
2023/04/28 10:28:19;;;;;;;9.77;5.95;;;12.90;99.90;;;;;;12523851;28;20066;-37
2023/04/28 10:34:28;;;;;;;14.13;6.15;;;12.80;99.90;;;;;;12476250;28;20370;-38
2023/04/28 10:40:43;;;;;;;10.18;6.13;;;12.50;99.90;;;;;;12484012;28;20041;-37
2023/04/28 10:47:05;;;;;;;9.70;5.78;;;12.40;99.90;;;;;;12466649;28;20490;-37
2023/04/28 10:53:14;;;;;;;11.27;5.97;;;12.30;99.90;;;;;;12474954;28;20057;-37
2023/04/28 10:59:29;;;;;;;9.68;6.97;;;12.20;99.90;;;;;;12494664;28;20489;-37
2023/04/28 11:05:37;;;;;;;12.15;6.47;;;12.10;99.90;;;;;;12530491;28;20045;-37
2023/04/28 11:12:00;;;;;;;11.65;6.53;;;12.10;99.90;;;;;;12505323;28;20045;-37
2023/04/28 11:18:20;;;;;;;9.55;5.63;;;12.10;99.90;;;;;;12490894;28;20071;-36
2023/04/28 11:24:29;;;;;;;9.35;5.13;;;12.20;99.90;;;;;;12482016;28;20053;-36
2023/04/28 11:30:38;;;;;;;7.25;4.47;;;12.40;99.90;;;;;;12489097;28;20060;-37
2023/04/28 11:36:47;;;;;;;8.48;5.13;;;12.60;99.90;;;;;;12500342;28;20041;-37
2023/04/28 11:42:57;;;;;;;7.07;5.43;;;12.80;99.90;;;;;;12500420;28;20099;-38
2023/04/28 11:49:06;;;;;;;9.00;5.50;;;12.90;99.90;;;;;;12483632;28;20050;-37
2023/04/28 11:55:22;;;;;;;7.97;5.10;;;13.20;99.90;;;;;;12486167;28;20052;-37
2023/04/28 12:01:48;;;;;;;7.78;5.95;;;13.30;99.90;;;;;;12484043;28;20136;-37
2023/04/28 12:07:56;;;;;;;9.52;6.43;;;13.40;99.90;;;;;;12465824;28;20091;-38
2023/04/28 12:14:06;;;;;;;9.15;6.55;;;13.40;99.90;;;;;;12481592;28;20045;-39
2023/04/28 12:20:37;;;;;;;9.73;6.20;;;13.30;99.90;;;;;;12488323;28;20044;-37
2023/04/28 12:26:47;;;;;;;10.27;6.72;;;13.50;99.90;;;;;;12491883;28;20037;-38
2023/04/28 12:32:56;;;;;;;11.77;7.50;;;13.50;99.90;;;;;;12483170;28;20410;-38
2023/04/28 12:39:04;;;;;;;11.63;6.85;;;13.50;99.90;;;;;;12479717;28;20429;-38
2023/04/28 12:45:15;;;;;;;12.98;7.55;;;13.60;99.90;;;;;;12529802;28;20198;-37
2023/04/28 12:51:23;;;;;;;15.05;8.20;;;13.60;99.90;;;;;;12531685;28;20132;-39
2023/04/28 12:57:31;;;;;;;11.43;7.68;;;13.70;99.90;;;;;;12532417;28;20102;-38
2023/04/28 13:03:49;;;;;;;11.40;7.68;;;13.60;99.90;;;;;;12521174;28;20037;-38
2023/04/28 13:09:58;;;;;;;12.32;8.23;;;13.70;99.90;;;;;;12529523;28;20041;-38
2023/04/28 13:16:07;;;;;;;12.15;8.52;;;13.80;99.90;;;;;;12468863;28;20053;-38
2023/04/28 13:22:16;;;;;;;12.68;8.00;;;13.70;99.90;;;;;;12474465;28;20219;-38
2023/04/28 13:28:25;;;;;;;13.20;8.57;;;13.80;99.90;;;;;;12446443;28;20045;-37
2023/04/28 13:34:33;;;;;;;9.40;7.95;;;13.90;99.90;;;;;;12490203;28;20041;-37
2023/04/28 13:40:41;;;;;;;12.38;9.23;;;14.10;99.90;;;;;;12474008;28;20049;-41
2023/04/28 13:46:51;;;;;;;11.57;7.97;;;14.50;99.90;;;;;;12481253;28;20059;-40
2023/04/28 13:53:00;;;;;;;13.45;8.20;;;14.60;99.90;;;;;;12478530;28;20037;-40
2023/04/28 13:59:08;;;;;;;12.23;8.43;;;14.80;99.90;;;;;;12485755;28;20076;-39
2023/04/28 14:05:23;;;;;;;10.88;8.18;;;14.90;99.90;;;;;;12463456;28;20528;-41
2023/04/28 14:11:46;;;;;;;11.25;8.65;;;14.90;99.90;;;;;;12466997;28;20460;-40
2023/04/28 14:17:55;;;;;;;11.27;8.27;;;15.10;99.90;;;;;;12454002;28;20049;-40
2023/04/28 14:24:10;;;;;;;11.73;8.30;;;15.10;99.90;;;;;;12455971;28;20061;-40
2023/04/28 14:30:18;;;;;;;13.75;8.65;;;14.90;99.90;;;;;;12477775;28;20049;-40
2023/04/28 14:36:27;;;;;;;13.25;9.35;;;14.70;99.90;;;;;;12465678;28;20075;-40
2023/04/28 14:42:36;;;;;;;16.45;9.95;;;14.40;99.90;;;;;;12475925;28;20080;-40
2023/04/28 14:48:44;;;;;;;13.05;9.95;;;14.10;99.90;;;;;;12493431;28;20085;-40
2023/04/28 14:54:53;;;;;;;11.98;9.48;;;14.10;99.90;;;;;;12511774;28;20493;-40
2023/04/28 15:01:02;;;;;;;16.17;11.23;;;14.20;99.90;;;;;;12477962;28;20041;-40
2023/04/28 15:07:10;;;;;;;15.70;10.75;;;14.20;99.90;;;;;;12488193;28;20046;-40
2023/04/28 15:13:18;;;;;;;12.82;10.07;;;14.10;99.90;;;;;;12445496;28;20044;-41
2023/04/28 15:19:26;;;;;;;13.00;10.23;;;14.00;99.90;;;;;;12486253;28;20053;-39
2023/04/28 15:25:34;;;;;;;13.48;9.75;;;14.00;99.90;;;;;;12480055;28;20045;-40
2023/04/28 15:31:42;;;;;;;15.02;10.00;;;14.10;99.90;;;;;;12482868;28;20501;-40
2023/04/28 15:37:52;;;;;;;12.65;9.90;;;14.00;99.90;;;;;;12471303;28;20046;-40
2023/04/28 15:44:00;;;;;;;14.18;10.85;;;14.00;99.90;;;;;;12485308;28;20038;-40
2023/04/28 15:50:09;;;;;;;17.60;11.40;;;13.90;99.90;;;;;;12484412;28;20045;-40
2023/04/28 15:56:22;;;;;;;13.38;10.88;;;13.80;99.90;;;;;;12450858;28;20508;-40
2023/04/28 16:02:37;;;;;;;18.90;11.63;;;13.70;99.90;;;;;;12483522;28;20038;-39
2023/04/28 16:08:46;;;;;;;15.75;11.82;;;13.80;99.90;;;;;;12488842;28;20052;-40
2023/04/28 16:14:54;;;;;;;16.15;11.90;;;13.70;99.90;;;;;;12481402;28;20447;-40
2023/04/28 16:21:03;;;;;;;14.48;11.70;;;13.80;99.90;;;;;;12491037;28;20049;-40
2023/04/28 16:27:11;;;;;;;17.65;11.95;;;13.70;99.90;;;;;;12468753;28;20057;-40
2023/04/28 16:33:21;;;;;;;16.48;11.98;;;13.60;99.90;;;;;;12486682;28;20045;-40
2023/04/28 16:39:31;;;;;;;16.30;12.73;;;13.50;99.90;;;;;;12486022;28;20140;-40
2023/04/28 16:45:39;;;;;;;17.40;13.25;;;13.40;99.90;;;;;;12489879;28;20580;-39
2023/04/28 16:51:55;;;;;;;16.05;12.20;;;13.40;99.90;;;;;;12488666;28;20046;-39
2023/04/28 16:58:04;;;;;;;19.30;13.57;;;13.40;99.90;;;;;;12488047;28;20037;-40
2023/04/28 17:04:20;;;;;;;17.02;13.05;;;13.40;99.90;;;;;;12470757;28;20042;-40
2023/04/28 17:10:28;;;;;;;19.85;14.10;;;13.40;99.90;;;;;;12481814;28;20065;-40
2023/04/28 17:16:37;;;;;;;16.02;12.80;;;13.40;99.90;;;;;;12474974;28;20049;-40
2023/04/28 17:22:46;;;;;;;19.23;13.52;;;13.40;99.90;;;;;;12476421;28;20041;-40
2023/04/28 17:28:57;;;;;;;23.83;14.10;;;13.30;99.90;;;;;;12489673;28;20049;-40
2023/04/28 17:35:06;;;;;;;18.60;14.40;;;13.30;99.90;;;;;;12488242;28;20049;-40
2023/04/28 17:41:18;;;;;;;21.42;15.82;;;13.30;99.90;;;;;;12494133;28;20054;-40
2023/04/28 17:47:27;;;;;;;21.48;15.38;;;13.30;99.90;;;;;;12484350;28;20042;-40
2023/04/28 17:53:36;;;;;;;22.25;15.20;;;13.20;99.90;;;;;;12478391;28;20459;-40
2023/04/28 17:59:48;;;;;;;24.20;17.52;;;13.30;99.90;;;;;;12478147;28;20081;-41
2023/04/28 18:05:57;;;;;;;21.17;17.23;;;13.30;99.90;;;;;;12486878;28;20049;-40
2023/04/28 18:12:05;;;;;;;20.48;16.48;;;13.50;99.90;;;;;;12454944;28;20128;-40
2023/04/28 18:18:14;;;;;;;17.15;14.07;;;13.60;99.90;;;;;;12475823;28;20509;-39
2023/04/28 18:24:22;;;;;;;11.10;8.18;;;13.60;99.90;;;;;;12489026;28;20107;-40
2023/04/28 18:36:45;;;;;;;7.40;5.65;;;13.70;99.90;;;;;;12487230;28;20106;-41
2023/04/28 18:42:54;;;;;;;6.85;5.00;;;13.60;99.90;;;;;;12496047;28;20125;-41
2023/04/28 18:49:04;;;;;;;7.00;5.40;;;13.50;99.90;;;;;;12482561;28;20041;-40
2023/04/28 18:55:12;;;;;;;7.57;5.07;;;13.50;99.90;;;;;;12491238;28;20203;-41
2023/04/28 19:01:26;;;;;;;8.25;6.20;;;13.40;99.90;;;;;;12481970;28;20417;-40
2023/04/28 19:07:35;;;;;;;8.60;6.25;;;13.30;99.90;;;;;;12480248;28;20054;-41
2023/04/28 19:13:43;;;;;;;8.70;7.35;;;13.30;99.90;;;;;;12479767;28;20044;-40
2023/04/28 19:19:56;;;;;;;7.60;6.05;;;13.30;99.90;;;;;;12489681;28;20049;-41
2023/04/28 19:26:04;;;;;;;9.10;6.10;;;13.30;99.90;;;;;;12477929;28;20072;-40
2023/04/28 19:32:13;;;;;;;8.90;6.75;;;13.30;99.90;;;;;;12491419;28;20455;-40
2023/04/28 19:38:22;;;;;;;10.65;7.38;;;13.30;99.90;;;;;;12487948;28;20551;-40
2023/04/28 19:44:30;;;;;;;10.77;7.35;;;13.20;99.90;;;;;;12488146;28;20060;-40
2023/04/28 19:50:39;;;;;;;9.00;6.80;;;13.10;99.90;;;;;;12485512;28;20053;-39
2023/04/28 19:56:47;;;;;;;9.10;6.97;;;13.10;99.90;;;;;;12469838;28;20478;-40
2023/04/28 20:03:01;;;;;;;8.93;7.00;;;13.10;99.90;;;;;;12475702;28;20038;-40
2023/04/28 20:09:10;;;;;;;8.95;6.97;;;13.10;99.90;;;;;;12478927;28;20053;-40
2023/04/28 20:15:18;;;;;;;9.68;6.57;;;13.10;99.90;;;;;;12475524;28;20045;-39
2023/04/28 20:21:26;;;;;;;10.02;7.32;;;13.10;99.90;;;;;;12492437;28;20049;-40
2023/04/28 20:27:35;;;;;;;8.00;6.57;;;13.10;99.90;;;;;;12464185;28;20045;-40
2023/04/28 20:33:44;;;;;;;8.90;6.70;;;13.20;99.90;;;;;;12482108;28;20095;-40
2023/04/28 20:39:52;;;;;;;9.15;6.25;;;13.10;99.90;;;;;;12462856;28;20053;-40
2023/04/28 20:46:00;;;;;;;9.73;6.60;;;13.10;99.90;;;;;;12479694;28;20048;-40
2023/04/28 20:52:08;;;;;;;8.85;6.80;;;13.10;99.90;;;;;;12475142;28;20041;-40
2023/04/28 20:58:16;;;;;;;9.05;7.00;;;13.10;99.90;;;;;;12481018;28;20041;-40
2023/04/28 21:04:30;;;;;;;9.00;7.50;;;13.00;99.90;;;;;;12480366;28;20041;-40
2023/04/28 21:10:40;;;;;;;12.45;7.93;;;13.00;99.90;;;;;;12479653;28;20045;-40
2023/04/28 21:16:48;;;;;;;12.27;9.02;;;12.90;99.90;;;;;;12452781;28;20048;-40
2023/04/28 21:22:56;;;;;;;10.18;7.93;;;12.80;99.90;;;;;;12485958;28;20053;-41
2023/04/28 21:29:05;;;;;;;8.95;7.22;;;12.90;99.90;;;;;;12488524;28;20464;-40
2023/04/28 21:35:13;;;;;;;10.77;8.48;;;12.80;99.90;;;;;;12475790;28;20508;-41
2023/04/28 21:41:21;;;;;;;10.38;7.88;;;12.70;99.90;;;;;;12485396;28;20071;-40
2023/04/28 21:47:35;;;;;;;14.00;8.27;;;12.70;99.90;;;;;;12472823;28;20049;-40
2023/04/28 21:53:44;;;;;;;11.55;9.13;;;12.70;99.90;;;;;;12482912;28;20045;-41
2023/04/28 21:59:52;;;;;;;10.95;8.68;;;12.70;99.90;;;;;;12475721;28;20050;-41
2023/04/28 22:06:00;;;;;;;12.13;9.85;;;12.60;99.90;;;;;;12484966;28;20080;-41
2023/04/28 22:12:10;;;;;;;11.05;9.20;;;12.60;99.90;;;;;;12478928;28;20370;-41
2023/04/28 22:18:18;;;;;;;13.40;9.63;;;12.70;99.90;;;;;;12436220;28;20061;-41
2023/04/28 22:24:26;;;;;;;13.05;9.32;;;12.60;99.90;;;;;;12451270;28;20049;-40
2023/04/28 22:30:35;;;;;;;13.65;10.05;;;12.60;99.90;;;;;;12481742;28;20046;-41
2023/04/28 22:36:44;;;;;;;12.52;9.18;;;12.60;99.90;;;;;;12484727;28;20103;-40
2023/04/28 22:42:52;;;;;;;13.32;10.23;;;12.60;99.90;;;;;;12479840;28;20046;-40
2023/04/28 22:49:00;;;;;;;15.80;10.95;;;12.50;99.90;;;;;;12491883;28;20046;-41
2023/04/28 22:55:08;;;;;;;15.38;11.60;;;12.50;99.90;;;;;;12485712;28;20554;-41
2023/04/28 23:01:23;;;;;;;14.52;10.40;;;12.50;99.90;;;;;;12470412;28;20060;-40
2023/04/28 23:07:32;;;;;;;16.95;13.57;;;12.50;99.90;;;;;;12467660;28;20433;-39
2023/04/28 23:13:40;;;;;;;21.65;15.65;;;12.40;99.90;;;;;;12481633;28;20106;-39
2023/04/28 23:19:48;;;;;;;24.73;17.33;;;12.10;99.90;;;;;;12482810;28;20050;-40
2023/04/28 23:25:56;;;;;;;29.67;19.23;;;11.90;99.90;;;;;;12495132;28;20041;-39
2023/04/28 23:32:04;;;;;;;31.50;20.30;;;11.80;99.90;;;;;;12491709;28;20045;-39
2023/04/28 23:38:13;;;;;;;34.42;21.15;;;11.70;99.90;;;;;;12488219;28;20049;-40
2023/04/28 23:44:21;;;;;;;37.05;22.65;;;11.60;99.90;;;;;;12490753;28;20037;-40
2023/04/28 23:50:30;;;;;;;40.85;22.65;;;11.60;99.90;;;;;;12467091;28;20505;-40
2023/04/28 23:56:38;;;;;;;40.58;24.00;;;11.60;99.90;;;;;;12472003;28;20057;-40
